Time;durP1;ratioP1;P1;durP2;ratioP2;P2;SDS_P1;SDS_P2;PMS_P1;PMS_P2;Temp;Humidity;BMP_temperature;BMP_pressure;BME280_temperature;BME280_humidity;BME280_pressure;Samples;Min_cycle;Max_cycle;Signal;HPM_P1;HPM_P2
2023/02/13 00:01:51;;;;;;;44.53;26.02;;;8.20;99.90;;;;;;5014029;28;20068;-89
2023/02/13 00:04:17;;;;;;;46.95;25.52;;;8.30;99.90;;;;;;5013546;28;20049;-87
2023/02/13 00:06:43;;;;;;;43.20;26.55;;;9.60;99.90;;;;;;5013926;28;20355;-89
2023/02/13 00:09:09;;;;;;;47.42;26.65;;;8.20;99.90;;;;;;5013430;28;20053;-89
2023/02/13 00:11:36;;;;;;;45.00;26.67;;;8.20;99.90;;;;;;5013536;28;20385;-89
2023/02/13 00:14:01;;;;;;;42.88;25.15;;;8.20;99.90;;;;;;5013246;28;20026;-89
2023/02/13 00:16:27;;;;;;;40.30;26.50;;;9.00;99.90;;;;;;5013538;28;20033;-88
2023/02/13 00:18:53;;;;;;;41.50;26.17;;;8.20;99.90;;;;;;5013415;28;20026;-88
2023/02/13 00:21:18;;;;;;;45.95;27.45;;;9.20;99.90;;;;;;5013404;28;20026;-89
2023/02/13 00:23:44;;;;;;;40.97;25.73;;;8.20;99.90;;;;;;5014168;28;20022;-88
2023/02/13 00:26:14;;;;;;;43.53;25.42;;;8.20;99.90;;;;;;5012709;28;20030;-88
2023/02/13 00:28:40;;;;;;;45.78;26.58;;;8.20;99.90;;;;;;4999609;28;20030;-88
2023/02/13 00:31:08;;;;;;;46.40;27.15;;;8.20;99.90;;;;;;4994377;28;20451;-88
2023/02/13 00:33:34;;;;;;;39.05;25.30;;;8.20;99.90;;;;;;4999516;28;20026;-89
2023/02/13 00:36:04;;;;;;;48.70;26.67;;;8.60;99.90;;;;;;5013669;28;20036;-88
2023/02/13 00:38:30;;;;;;;42.60;25.73;;;8.20;99.90;;;;;;5013140;28;20501;-88
2023/02/13 00:40:55;;;;;;;40.20;26.23;;;8.20;99.90;;;;;;5012636;28;20030;-88
2023/02/13 00:43:21;;;;;;;42.80;26.73;;;8.20;99.90;;;;;;5012635;28;20018;-88
2023/02/13 00:45:46;;;;;;;45.70;26.15;;;8.20;99.90;;;;;;5012772;28;20125;-88
2023/02/13 00:48:12;;;;;;;46.08;26.85;;;8.20;99.90;;;;;;5012735;28;20029;-89
2023/02/13 00:50:37;;;;;;;44.63;26.52;;;8.80;99.90;;;;;;5013351;28;20145;-88
2023/02/13 00:53:03;;;;;;;41.72;25.67;;;8.30;99.90;;;;;;5012474;28;20025;-87
2023/02/13 00:55:29;;;;;;;42.58;26.98;;;8.40;99.90;;;;;;5013091;28;20029;-88
2023/02/13 00:57:54;;;;;;;40.92;25.48;;;8.20;99.90;;;;;;5013185;28;20026;-88
2023/02/13 01:00:20;;;;;;;43.40;25.25;;;8.30;99.90;;;;;;5012459;28;20326;-89
2023/02/13 01:02:46;;;;;;;40.90;25.60;;;8.20;99.90;;;;;;5013023;28;20017;-88
2023/02/13 01:05:21;;;;;;;40.80;27.25;;;8.70;99.90;;;;;;5012649;28;20535;-89
2023/02/13 01:07:46;;;;;;;41.42;26.35;;;8.70;99.90;;;;;;5012569;28;20026;-88
2023/02/13 01:10:12;;;;;;;42.70;26.52;;;8.90;99.90;;;;;;5012520;28;20382;-87
2023/02/13 01:12:37;;;;;;;39.92;26.27;;;8.30;99.90;;;;;;5012918;28;20099;-88
2023/02/13 01:15:04;;;;;;;40.47;25.38;;;8.20;99.90;;;;;;5012336;28;20037;-89
2023/02/13 01:17:30;;;;;;;42.92;25.55;;;8.30;99.90;;;;;;5012641;28;20060;-89
2023/02/13 01:19:56;;;;;;;40.00;25.52;;;8.80;99.90;;;;;;5013030;28;20026;-88
2023/02/13 01:22:21;;;;;;;38.92;25.30;;;8.20;99.90;;;;;;5012551;28;20022;-88
2023/02/13 01:24:47;;;;;;;41.60;25.90;;;8.20;99.90;;;;;;5013063;28;20083;-89
2023/02/13 01:27:12;;;;;;;42.67;26.88;;;8.20;99.90;;;;;;5012096;28;20477;-87
2023/02/13 01:29:38;;;;;;;40.78;25.27;;;8.20;99.90;;;;;;5011933;28;20057;-89
2023/02/13 01:32:04;;;;;;;46.63;24.90;;;8.20;99.90;;;;;;5012473;28;20022;-89
2023/02/13 01:34:31;;;;;;;42.10;25.88;;;8.20;99.90;;;;;;5012967;28;20088;-89
2023/02/13 01:36:57;;;;;;;40.20;25.33;;;8.20;99.90;;;;;;5012508;28;20033;-89
2023/02/13 01:39:23;;;;;;;41.20;24.75;;;8.20;99.90;;;;;;5012606;28;20030;-89
2023/02/13 01:41:48;;;;;;;41.05;26.00;;;8.20;99.90;;;;;;5012967;28;20053;-89
2023/02/13 01:44:53;;;;;;;39.75;24.38;;;8.20;99.90;;;;;;5012169;28;20056;-89
2023/02/13 01:47:39;;;;;;;45.67;27.13;;;8.10;99.90;;;;;;5009787;28;20025;-89
2023/02/13 01:50:10;;;;;;;43.50;24.75;;;8.10;99.90;;;;;;4996959;28;20060;-87
2023/02/13 01:52:40;;;;;;;35.30;24.77;;;8.20;99.90;;;;;;5008109;28;20100;-88
2023/02/13 01:55:07;;;;;;;41.13;24.65;;;8.10;99.90;;;;;;5015943;28;20038;-88
2023/02/13 01:57:33;;;;;;;41.28;24.10;;;8.10;99.90;;;;;;5016016;28;20112;-89
2023/02/13 02:00:10;;;;;;;42.80;26.30;;;8.80;99.90;;;;;;5016451;28;20463;-89
2023/02/13 02:02:42;;;;;;;40.30;24.73;;;7.70;99.90;;;;;;5016401;28;20064;-89
2023/02/13 02:05:08;;;;;;;39.20;24.27;;;8.80;99.90;;;;;;5015581;28;20095;-88
2023/02/13 02:07:36;;;;;;;40.92;25.02;;;8.10;99.90;;;;;;5016668;28;20072;-88
2023/02/13 02:10:07;;;;;;;41.90;25.90;;;8.50;99.90;;;;;;5015569;28;20085;-88
2023/02/13 02:13:00;;;;;;;38.63;23.83;;;8.20;99.90;;;;;;5015802;28;20113;-88
2023/02/13 02:15:26;;;;;;;41.85;23.77;;;8.20;99.90;;;;;;5016079;28;20029;-88
2023/02/13 02:17:51;;;;;;;39.88;23.27;;;8.20;99.90;;;;;;5018502;28;20100;-88
2023/02/13 02:21:00;;;;;;;38.80;24.58;;;8.20;99.90;;;;;;5015638;28;20026;-89
2023/02/13 02:24:11;;;;;;;36.88;22.38;;;8.20;99.90;;;;;;5015961;28;20022;-89
2023/02/13 02:27:04;;;;;;;42.00;23.98;;;8.20;99.90;;;;;;5015964;28;20069;-88
2023/02/13 02:29:53;;;;;;;35.67;22.83;;;8.20;99.90;;;;;;5015803;28;20037;-88
2023/02/13 02:32:42;;;;;;;42.08;23.35;;;8.20;99.90;;;;;;5014703;28;20018;-88
2023/02/13 02:35:32;;;;;;;40.28;23.63;;;8.20;99.90;;;;;;5015325;28;20026;-87
2023/02/13 02:38:16;;;;;;;34.20;21.45;;;8.60;99.90;;;;;;5015320;28;20516;-89
2023/02/13 02:41:03;;;;;;;37.08;22.55;;;8.10;99.90;;;;;;5015389;28;20030;-87
2023/02/13 02:44:06;;;;;;;36.10;22.35;;;8.20;99.90;;;;;;5008426;28;20037;-90
2023/02/13 02:49:57;;;;;;;36.25;22.00;;;8.20;99.90;;;;;;5015212;28;20026;-89
2023/02/13 02:49:58;;;;;;;41.40;23.13;;;8.20;99.90;;;;;;5015228;28;20045;-89
2023/02/13 02:52:36;;;;;;;34.33;21.30;;;8.20;99.90;;;;;;5012952;28;20022;-90
2023/02/13 02:55:21;;;;;;;35.42;22.02;;;8.20;99.90;;;;;;4995455;28;20030;-89
2023/02/13 03:06:18;;;;;;;33.88;20.77;;;8.20;99.90;;;;;;4995044;28;20042;-90
2023/02/13 03:14:25;;;;;;;35.45;21.27;;;8.20;99.90;;;;;;4994741;28;20088;-88
2023/02/13 03:23:14;;;;;;;36.05;21.23;;;8.20;99.90;;;;;;4995259;28;20096;-89
2023/02/13 03:26:09;;;;;;;35.22;21.08;;;8.20;99.90;;;;;;4995164;28;20046;-88
2023/02/13 03:32:00;;;;;;;37.13;22.05;;;8.20;99.90;;;;;;4995127;28;20078;-89
2023/02/13 03:37:53;;;;;;;33.65;21.15;;;8.10;99.90;;;;;;4994768;28;20058;-89
2023/02/13 03:41:17;;;;;;;36.78;20.98;;;8.20;99.90;;;;;;4994828;28;20040;-89
2023/02/13 03:43:51;;;;;;;35.55;21.70;;;8.20;99.90;;;;;;4994087;28;20022;-88
2023/02/13 03:46:18;;;;;;;34.88;20.20;;;8.20;99.90;;;;;;4994454;28;20038;-88
2023/02/13 03:51:42;;;;;;;35.75;20.45;;;8.90;99.90;;;;;;4994658;28;20045;-87
2023/02/13 04:00:10;;;;;;;34.53;21.27;;;8.50;99.90;;;;;;4994364;28;20041;-89
2023/02/13 04:02:42;;;;;;;33.78;20.25;;;8.10;99.90;;;;;;4993581;28;20029;-89
2023/02/13 04:05:14;;;;;;;35.85;20.60;;;8.10;99.90;;;;;;4994394;28;20041;-89
2023/02/13 04:07:40;;;;;;;32.35;21.63;;;8.10;99.90;;;;;;4995019;28;20022;-87
2023/02/13 04:10:09;;;;;;;35.92;22.23;;;8.90;99.90;;;;;;4993116;28;20517;-89
2023/02/13 04:12:56;;;;;;;36.28;22.10;;;8.10;99.90;;;;;;4994132;28;20588;-89
2023/02/13 04:15:54;;;;;;;39.33;22.73;;;8.10;99.90;;;;;;4993365;28;20077;-89
2023/02/13 04:18:27;;;;;;;35.72;22.05;;;8.10;99.90;;;;;;4993431;28;20031;-88
2023/02/13 04:20:52;;;;;;;38.25;21.95;;;8.10;99.90;;;;;;4993896;28;20030;-89
2023/02/13 04:23:18;;;;;;;34.10;21.60;;;8.10;99.90;;;;;;4993664;28;20026;-87
2023/02/13 04:25:48;;;;;;;37.30;22.80;;;8.70;99.90;;;;;;4993741;28;20022;-89
2023/02/13 04:28:14;;;;;;;36.22;22.13;;;8.10;99.90;;;;;;4994176;28;20029;-88
2023/02/13 04:30:39;;;;;;;37.78;22.23;;;8.00;99.90;;;;;;4993695;28;20042;-88
2023/02/13 04:33:05;;;;;;;37.85;22.40;;;8.90;99.90;;;;;;4993271;28;20030;-89
2023/02/13 04:35:31;;;;;;;33.90;21.23;;;8.10;99.90;;;;;;4993745;28;20530;-90
2023/02/13 04:37:56;;;;;;;37.72;23.15;;;8.10;99.90;;;;;;4993398;28;20536;-89
2023/02/13 04:40:22;;;;;;;35.17;22.50;;;8.10;99.90;;;;;;4993225;28;20018;-88
2023/02/13 04:42:48;;;;;;;35.45;22.50;;;8.00;99.90;;;;;;4993860;28;20076;-89
2023/02/13 04:45:14;;;;;;;38.72;22.60;;;8.00;99.90;;;;;;4992692;28;20533;-89
2023/02/13 04:47:39;;;;;;;40.00;23.65;;;8.00;99.90;;;;;;4993823;28;20034;-89
2023/02/13 04:50:06;;;;;;;38.17;23.33;;;8.00;99.90;;;;;;4993330;28;20133;-89
2023/02/13 04:52:31;;;;;;;38.72;23.95;;;8.10;99.90;;;;;;4992912;28;20022;-90
2023/02/13 04:54:57;;;;;;;40.35;23.83;;;8.00;99.90;;;;;;4993656;28;20096;-89
2023/02/13 04:57:22;;;;;;;40.17;23.58;;;8.50;99.90;;;;;;4993309;28;20030;-89
2023/02/13 04:59:48;;;;;;;40.50;23.27;;;8.10;99.90;;;;;;4995201;28;20605;-89
2023/02/13 05:02:13;;;;;;;42.85;23.92;;;8.60;99.90;;;;;;4994461;28;20489;-89
2023/02/13 05:04:42;;;;;;;42.40;22.92;;;9.20;99.90;;;;;;4993298;28;20073;-88
2023/02/13 05:07:07;;;;;;;37.38;23.30;;;8.10;99.90;;;;;;4992836;28;20578;-89
2023/02/13 05:09:33;;;;;;;42.63;24.10;;;8.10;99.90;;;;;;4993267;28;20042;-88
2023/02/13 05:11:58;;;;;;;43.97;24.35;;;8.70;99.90;;;;;;4993198;28;20058;-88
2023/02/13 05:14:24;;;;;;;43.30;25.00;;;8.90;99.90;;;;;;4992657;28;20037;-88
2023/02/13 05:16:49;;;;;;;42.95;24.83;;;8.60;99.90;;;;;;4992953;28;20022;-88
2023/02/13 05:19:16;;;;;;;43.13;25.55;;;8.30;99.90;;;;;;4992628;28;20030;-90
2023/02/13 05:24:25;;;;;;;40.30;24.20;;;8.00;99.90;;;;;;4993219;28;20046;-86
2023/02/13 05:26:51;;;;;;;42.13;22.35;;;8.00;99.90;;;;;;4996722;28;20026;-88
2023/02/13 05:29:21;;;;;;;45.00;25.50;;;8.10;99.90;;;;;;4997387;28;20422;-89
2023/02/13 05:31:49;;;;;;;42.90;24.03;;;8.20;99.90;;;;;;4997269;28;20037;-87
2023/02/13 05:34:15;;;;;;;42.65;24.08;;;8.10;99.90;;;;;;4995980;28;20269;-88
2023/02/13 05:36:40;;;;;;;42.30;25.02;;;8.40;99.90;;;;;;4997198;28;20024;-88
2023/02/13 05:39:06;;;;;;;45.22;24.33;;;8.10;99.90;;;;;;4996942;28;20026;-89
2023/02/13 05:41:31;;;;;;;43.00;24.45;;;8.00;99.90;;;;;;4996645;28;20466;-88
2023/02/13 05:43:57;;;;;;;41.75;24.38;;;8.80;99.90;;;;;;4996882;28;20061;-87
2023/02/13 05:46:23;;;;;;;40.42;24.85;;;8.00;99.90;;;;;;4996828;28;20030;-88
2023/02/13 05:48:48;;;;;;;40.90;25.67;;;8.50;99.90;;;;;;4996118;28;20026;-88
2023/02/13 05:51:14;;;;;;;42.30;25.02;;;8.80;99.90;;;;;;4996661;28;20030;-87
2023/02/13 05:53:40;;;;;;;46.03;25.95;;;8.10;99.90;;;;;;4999312;28;20023;-89
2023/02/13 05:56:05;;;;;;;38.78;23.63;;;8.10;99.90;;;;;;4996358;28;20130;-89
2023/02/13 05:58:32;;;;;;;39.47;24.50;;;8.00;99.90;;;;;;4996551;28;20026;-87
2023/02/13 06:00:59;;;;;;;43.65;24.63;;;8.00;99.90;;;;;;4996366;28;20475;-88
2023/02/13 06:03:25;;;;;;;43.13;24.92;;;8.80;99.90;;;;;;4996007;28;20030;-88
2023/02/13 06:05:53;;;;;;;41.05;24.88;;;8.80;99.90;;;;;;4996666;28;20022;-88
2023/02/13 06:08:19;;;;;;;44.58;25.30;;;8.30;99.90;;;;;;4995791;28;20027;-88
2023/02/13 06:10:48;;;;;;;43.75;25.38;;;8.00;99.90;;;;;;4996024;28;20521;-89
2023/02/13 06:13:14;;;;;;;42.35;23.98;;;8.10;99.90;;;;;;4996375;28;20070;-88
2023/02/13 06:15:40;;;;;;;47.47;25.33;;;8.00;99.90;;;;;;4996672;28;20497;-89
2023/02/13 06:18:05;;;;;;;41.83;24.65;;;8.10;99.90;;;;;;4995455;28;20077;-87
2023/02/13 06:20:32;;;;;;;48.25;26.08;;;8.00;99.90;;;;;;4996740;28;20435;-89
2023/02/13 06:22:57;;;;;;;54.90;28.73;;;8.00;99.90;;;;;;4996362;28;20378;-89
2023/02/13 06:25:23;;;;;;;46.33;25.15;;;8.00;99.90;;;;;;4995849;28;20093;-89
2023/02/13 06:27:49;;;;;;;42.38;25.30;;;8.00;99.90;;;;;;5010241;28;20025;-90
2023/02/13 06:30:15;;;;;;;45.85;25.83;;;8.00;99.90;;;;;;5015002;28;20505;-89
2023/02/13 06:32:41;;;;;;;43.28;25.40;;;8.00;99.90;;;;;;5010663;28;20032;-87
2023/02/13 06:35:07;;;;;;;44.22;25.33;;;8.00;99.90;;;;;;5015604;28;20448;-88
2023/02/13 06:37:33;;;;;;;45.03;25.52;;;8.00;99.90;;;;;;5013468;28;20026;-88
2023/02/13 06:39:59;;;;;;;44.78;25.75;;;8.90;99.90;;;;;;4996454;28;20045;-90
2023/02/13 06:42:24;;;;;;;43.38;23.77;;;8.10;99.90;;;;;;4995673;28;20075;-88
2023/02/13 06:44:50;;;;;;;46.17;26.60;;;8.50;99.90;;;;;;5011646;28;20473;-88
2023/02/13 06:47:15;;;;;;;47.60;25.05;;;7.80;99.90;;;;;;5000322;28;20023;-87
2023/02/13 06:49:41;;;;;;;46.33;27.20;;;8.60;99.90;;;;;;5004148;28;20046;-87
2023/02/13 06:52:07;;;;;;;43.20;26.55;;;9.20;99.90;;;;;;5012350;28;20049;-88
2023/02/13 06:54:32;;;;;;;45.95;27.88;;;8.50;99.90;;;;;;5012633;28;20033;-88
2023/02/13 06:56:58;;;;;;;44.55;25.98;;;7.60;99.90;;;;;;5012942;28;20045;-88
2023/02/13 06:59:24;;;;;;;46.40;27.75;;;7.60;99.90;;;;;;5012166;28;20022;-87
2023/02/13 07:01:49;;;;;;;49.35;26.35;;;7.50;99.90;;;;;;5014679;28;20033;-88
2023/02/13 07:04:15;;;;;;;46.42;26.67;;;7.50;99.90;;;;;;5014617;28;20022;-87
2023/02/13 07:06:40;;;;;;;50.00;27.75;;;7.50;99.90;;;;;;5014329;28;20021;-88
2023/02/13 07:09:12;;;;;;;49.00;28.08;;;7.50;99.90;;;;;;5013492;28;20046;-88
2023/02/13 07:11:38;;;;;;;50.45;28.73;;;8.10;99.90;;;;;;5014456;28;20529;-87
2023/02/13 07:14:05;;;;;;;44.78;26.45;;;8.20;99.90;;;;;;5002621;28;20113;-89
2023/02/13 07:16:31;;;;;;;45.63;26.52;;;7.50;99.90;;;;;;5011661;28;20022;-88
2023/02/13 07:18:57;;;;;;;49.25;28.13;;;8.70;99.90;;;;;;4998841;28;20038;-87
2023/02/13 07:21:22;;;;;;;53.03;28.00;;;8.10;99.90;;;;;;4994439;28;20042;-87
2023/02/13 07:23:57;;;;;;;50.22;27.98;;;8.70;99.90;;;;;;4994956;28;20364;-88
2023/02/13 07:26:22;;;;;;;46.50;26.30;;;7.40;99.90;;;;;;5005366;28;20054;-89
2023/02/13 07:28:48;;;;;;;48.75;26.38;;;8.20;99.90;;;;;;5014284;28;20458;-88
2023/02/13 07:31:13;;;;;;;47.38;27.42;;;7.40;99.90;;;;;;5014439;28;20022;-90
2023/02/13 07:33:39;;;;;;;47.20;26.10;;;8.30;99.90;;;;;;5020786;23;20033;-88
2023/02/13 07:36:05;;;;;;;51.92;27.38;;;7.40;99.90;;;;;;5014220;28;20034;-90
2023/02/13 07:38:34;;;;;;;49.33;27.73;;;7.40;99.90;;;;;;5014669;28;20030;-87
2023/02/13 07:41:01;;;;;;;56.67;29.67;;;7.40;99.90;;;;;;5015160;28;20034;-89
2023/02/13 07:43:30;;;;;;;52.85;28.83;;;7.40;99.90;;;;;;5004218;28;20022;-89
2023/02/13 07:46:00;;;;;;;54.58;28.70;;;7.80;99.90;;;;;;5010765;28;20081;-89
2023/02/13 07:48:27;;;;;;;54.63;29.60;;;7.40;99.90;;;;;;5010182;28;20064;-89
2023/02/13 07:50:53;;;;;;;55.63;30.02;;;7.50;99.90;;;;;;5009813;28;20060;-89
2023/02/13 07:53:25;;;;;;;50.88;29.15;;;7.50;99.90;;;;;;5013659;28;20018;-87
2023/02/13 07:55:50;;;;;;;58.97;29.83;;;7.40;99.90;;;;;;5013768;28;20139;-87
2023/02/13 07:58:16;;;;;;;48.17;28.35;;;8.30;99.90;;;;;;5013685;28;20497;-87
2023/02/13 08:00:44;;;;;;;49.88;28.58;;;7.40;99.90;;;;;;5013915;28;20466;-95
2023/02/13 08:03:10;;;;;;;55.70;29.35;;;7.40;99.90;;;;;;5012685;28;20033;-89
2023/02/13 08:05:36;;;;;;;55.72;29.65;;;7.40;99.90;;;;;;5014056;28;20065;-89
2023/02/13 08:08:02;;;;;;;53.47;29.77;;;7.40;99.90;;;;;;5005430;28;20068;-88
2023/02/13 08:13:13;;;;;;;46.63;28.42;;;7.50;99.90;;;;;;5013897;28;20084;-88
2023/02/13 08:15:39;;;;;;;49.72;28.55;;;7.50;99.90;;;;;;5014094;28;20022;-89
2023/02/13 08:18:05;;;;;;;53.40;29.95;;;8.20;99.90;;;;;;5012710;28;20084;-90
2023/02/13 08:20:31;;;;;;;57.42;31.00;;;7.50;99.90;;;;;;5013483;28;20026;-87
2023/02/13 08:23:04;;;;;;;51.70;30.48;;;7.50;99.90;;;;;;5007726;28;20375;-88
2023/02/13 08:25:30;;;;;;;50.83;30.27;;;7.50;99.90;;;;;;5013630;28;20048;-89
2023/02/13 08:27:55;;;;;;;53.00;29.50;;;7.50;99.90;;;;;;5013281;28;20414;-87
2023/02/13 08:30:21;;;;;;;52.75;30.17;;;7.60;99.90;;;;;;5012158;28;20046;-89
2023/02/13 08:32:47;;;;;;;48.42;28.67;;;8.20;99.90;;;;;;5013181;28;20018;-87
2023/02/13 08:35:12;;;;;;;60.22;32.58;;;7.60;99.90;;;;;;5013641;28;20107;-89
2023/02/13 08:37:38;;;;;;;50.72;29.85;;;7.90;99.90;;;;;;5013206;28;20025;-90
2023/02/13 08:40:04;;;;;;;61.22;31.33;;;7.60;99.90;;;;;;5013421;28;20022;-88
2023/02/13 08:42:29;;;;;;;53.83;31.35;;;7.70;99.90;;;;;;5013641;28;20037;-87
2023/02/13 08:44:58;;;;;;;51.13;31.02;;;7.80;99.90;;;;;;5013326;28;20022;-88
2023/02/13 08:47:24;;;;;;;57.03;32.28;;;7.70;99.90;;;;;;5010591;28;20601;-87
2023/02/13 08:49:50;;;;;;;52.53;31.38;;;7.70;99.90;;;;;;5012640;28;20470;-88
2023/02/13 08:52:15;;;;;;;54.05;31.42;;;8.20;99.90;;;;;;5012889;28;20037;-84
2023/02/13 08:54:42;;;;;;;53.45;32.42;;;7.70;99.90;;;;;;5012980;28;20026;-90
2023/02/13 08:57:07;;;;;;;52.80;31.25;;;8.50;99.90;;;;;;5012924;28;20018;-88
2023/02/13 08:59:33;;;;;;;54.50;31.50;;;7.50;99.90;;;;;;5010558;28;20112;-88
2023/02/13 09:01:58;;;;;;;50.55;30.80;;;8.90;99.90;;;;;;5010377;28;20022;-88
2023/02/13 09:04:24;;;;;;;49.72;30.80;;;8.00;99.90;;;;;;5012811;28;20026;-86
2023/02/13 09:06:50;;;;;;;54.35;31.35;;;8.10;99.90;;;;;;5036915;23;20362;-93
2023/02/13 09:09:16;;;;;;;57.83;32.65;;;7.70;99.90;;;;;;5029746;28;20533;-89
2023/02/13 09:11:42;;;;;;;53.72;30.65;;;7.60;99.90;;;;;;5032704;28;20465;-88
2023/02/13 09:14:08;;;;;;;62.15;34.67;;;8.50;99.90;;;;;;5032163;28;20069;-89
2023/02/13 09:16:33;;;;;;;55.00;32.35;;;8.90;99.90;;;;;;5031175;28;20023;-89
2023/02/13 09:18:59;;;;;;;57.33;31.30;;;7.70;99.90;;;;;;5032113;28;20064;-91
2023/02/13 09:21:25;;;;;;;56.97;32.00;;;7.60;99.90;;;;;;5025712;28;20057;-88
2023/02/13 09:23:51;;;;;;;57.42;32.88;;;7.90;99.90;;;;;;5012906;28;20530;-89
2023/02/13 09:26:18;;;;;;;54.65;32.40;;;8.30;99.90;;;;;;5025801;28;20028;-92
2023/02/13 09:28:49;;;;;;;57.50;31.08;;;8.50;99.90;;;;;;5045325;28;20060;-94
2023/02/13 09:31:20;;;;;;;56.35;33.20;;;7.70;99.90;;;;;;5038372;28;20047;-93
2023/02/13 09:36:25;;;;;;;57.20;32.42;;;7.80;99.90;;;;;;5000288;23;20047;-92
2023/02/13 09:38:52;;;;;;;56.83;32.58;;;8.50;99.90;;;;;;4995176;28;20092;-92
2023/02/13 09:41:25;;;;;;;58.25;31.67;;;8.00;99.90;;;;;;4994962;28;20023;-92
2023/02/13 09:44:01;;;;;;;57.95;32.35;;;7.90;99.90;;;;;;4995952;28;20385;-90
2023/02/13 09:46:39;;;;;;;57.03;32.22;;;8.40;99.90;;;;;;4989386;28;20023;-90
2023/02/13 09:49:14;;;;;;;54.97;32.35;;;7.90;99.90;;;;;;4974240;28;20031;-92
2023/02/13 09:51:43;;;;;;;59.78;33.47;;;7.90;99.90;;;;;;4985049;28;20114;-90
2023/02/13 09:54:15;;;;;;;59.53;32.10;;;8.00;99.90;;;;;;4988148;28;20027;-91
2023/02/13 09:57:06;;;;;;;58.10;31.55;;;8.50;99.90;;;;;;5002509;28;20029;-90
2023/02/13 09:59:48;;;;;;;55.75;33.35;;;8.30;99.90;;;;;;5004042;28;20050;-94
2023/02/13 10:02:45;;;;;;;58.78;33.20;;;8.00;99.90;;;;;;5006431;28;20026;-89
2023/02/13 10:05:56;;;;;;;62.70;34.85;;;8.00;99.90;;;;;;4993099;28;20030;-91
2023/02/13 10:08:21;;;;;;;;;;;8.10;99.90;;;;;;4993581;28;20217;-91
2023/02/13 10:11:00;;;;;;;57.28;31.67;;;8.70;99.90;;;;;;4994633;28;20377;-92
2023/02/13 10:14:06;;;;;;;55.15;31.42;;;8.50;99.90;;;;;;4983982;28;20474;-91
2023/02/13 10:16:40;;;;;;;51.05;30.35;;;8.60;99.90;;;;;;4998088;28;20023;-90
2023/02/13 10:19:45;;;;;;;53.60;30.88;;;8.20;99.90;;;;;;4997829;28;20031;-91
2023/02/13 10:22:17;;;;;;;52.58;29.33;;;8.40;99.90;;;;;;4994326;28;20085;-90
2023/02/13 10:24:55;;;;;;;52.30;30.60;;;8.40;99.90;;;;;;4996287;28;20088;-90
2023/02/13 10:27:26;;;;;;;50.30;28.90;;;8.40;99.90;;;;;;4977165;28;20023;-89
2023/02/13 10:30:05;;;;;;;54.05;29.67;;;8.60;99.90;;;;;;4977212;28;20039;-90
2023/02/13 10:33:09;;;;;;;51.15;30.80;;;9.20;99.90;;;;;;4980800;28;20367;-92
2023/02/13 10:35:50;;;;;;;50.00;30.55;;;8.40;99.90;;;;;;4978541;28;20525;-92
2023/02/13 10:38:19;;;;;;;;;;;9.50;99.90;;;;;;4980705;28;20042;-95
2023/02/13 10:41:23;;;;;;;52.50;27.85;;;8.50;99.90;;;;;;5002249;28;20044;-90
2023/02/13 10:44:12;;;;;;;49.75;27.95;;;8.60;99.90;;;;;;4981697;28;20045;-89
2023/02/13 10:47:17;;;;;;;43.95;26.15;;;8.50;99.90;;;;;;5007094;28;20077;-91
2023/02/13 10:49:53;;;;;;;49.13;28.40;;;8.60;99.90;;;;;;4996426;28;20031;-90
2023/02/13 10:52:51;;;;;;;45.28;27.63;;;9.90;99.90;;;;;;5000530;28;20025;-91
2023/02/13 10:55:42;;;;;;;43.45;25.70;;;8.70;99.90;;;;;;5009643;28;20034;-92
2023/02/13 10:58:11;;;;;;;44.30;27.30;;;8.80;99.90;;;;;;4996454;28;20030;-89
2023/02/13 11:00:59;;;;;;;41.80;26.42;;;8.80;99.90;;;;;;4996072;28;20026;-89
2023/02/13 11:03:38;;;;;;;42.67;24.85;;;9.10;99.90;;;;;;5008321;28;20762;-89
2023/02/13 11:06:07;;;;;;;37.75;23.90;;;10.30;99.90;;;;;;4984267;28;20031;-88
2023/02/13 11:08:42;;;;;;;37.55;22.48;;;9.00;99.90;;;;;;4982715;28;20093;-89
2023/02/13 11:11:40;;;;;;;42.25;23.65;;;9.80;99.90;;;;;;4997669;28;20038;-88
2023/02/13 11:14:12;;;;;;;39.20;24.30;;;9.00;99.90;;;;;;4958393;28;20187;-89
2023/02/13 11:16:47;;;;;;;36.28;22.08;;;9.00;99.90;;;;;;4990702;28;20026;-88
2023/02/13 11:19:25;;;;;;;35.45;22.05;;;10.50;99.90;;;;;;5001859;28;20037;-89
2023/02/13 11:22:12;;;;;;;43.80;23.02;;;9.00;99.90;;;;;;5004977;28;20062;-89
2023/02/13 11:24:56;;;;;;;35.20;22.85;;;9.10;99.90;;;;;;4994989;28;20018;-89
2023/02/13 11:27:42;;;;;;;39.88;24.88;;;9.20;99.90;;;;;;5010295;28;20037;-88
2023/02/13 11:30:32;;;;;;;38.75;23.40;;;10.00;99.90;;;;;;5002743;28;20042;-89
2023/02/13 11:33:00;;;;;;;35.97;23.20;;;9.30;99.90;;;;;;5002504;28;20066;-88
2023/02/13 11:35:35;;;;;;;37.28;23.40;;;9.30;99.90;;;;;;5001329;28;20046;-89
2023/02/13 11:38:21;;;;;;;42.92;25.05;;;10.20;99.90;;;;;;5003771;28;20027;-89
2023/02/13 11:41:02;;;;;;;38.28;23.98;;;9.40;99.90;;;;;;4999738;28;20121;-88
2023/02/13 11:44:01;;;;;;;37.67;22.85;;;10.10;99.90;;;;;;4999570;28;20029;-88
2023/02/13 11:46:58;;;;;;;34.53;22.48;;;9.50;99.90;;;;;;5000328;28;20034;-88
2023/02/13 11:49:24;;;;;;;31.85;21.67;;;9.60;99.90;;;;;;4996010;28;20045;-89
2023/02/13 11:51:55;;;;;;;35.53;23.10;;;9.80;99.90;;;;;;4999918;28;20034;-88
2023/02/13 11:54:41;;;;;;;36.50;22.85;;;9.70;99.90;;;;;;5002537;28;20026;-89
2023/02/13 11:57:22;;;;;;;34.22;20.50;;;9.70;99.90;;;;;;5002099;28;20041;-87
2023/02/13 11:59:50;;;;;;;31.85;22.30;;;9.80;99.90;;;;;;4991553;28;20033;-89
2023/02/13 12:02:20;;;;;;;34.78;21.17;;;9.60;99.90;;;;;;4998268;28;20018;-89
2023/02/13 12:04:51;;;;;;;33.90;21.35;;;9.90;99.90;;;;;;5005926;28;20029;-89
2023/02/13 12:07:23;;;;;;;34.63;21.85;;;10.00;99.90;;;;;;5002982;28;20022;-89
2023/02/13 12:10:05;;;;;;;33.85;22.83;;;9.90;99.90;;;;;;5005279;28;20117;-88
2023/02/13 12:12:52;;;;;;;34.65;21.75;;;10.00;99.90;;;;;;4999403;28;20030;-88
2023/02/13 12:15:25;;;;;;;36.00;21.30;;;10.00;99.90;;;;;;4987129;28;20367;-88
2023/02/13 12:18:17;;;;;;;32.88;21.08;;;10.00;99.90;;;;;;4991180;28;20098;-88
2023/02/13 12:20:52;;;;;;;34.05;21.02;;;10.90;99.90;;;;;;4987138;28;20041;-88
2023/02/13 12:23:18;;;;;;;29.77;19.13;;;10.10;99.90;;;;;;4998699;28;20106;-89
2023/02/13 12:26:11;;;;;;;36.45;20.13;;;10.10;99.90;;;;;;4997447;28;20106;-89
2023/02/13 12:28:58;;;;;;;35.92;21.15;;;10.20;99.90;;;;;;4997898;28;20038;-88
2023/02/13 12:31:36;;;;;;;29.13;18.92;;;10.30;99.90;;;;;;4989056;28;20034;-89
2023/02/13 12:34:30;;;;;;;30.25;18.88;;;10.50;99.90;;;;;;4990409;28;20482;-89
2023/02/13 12:37:23;;;;;;;37.67;20.75;;;10.40;99.90;;;;;;5001186;28;20030;-88
2023/02/13 12:40:33;;;;;;;29.63;19.88;;;10.40;99.90;;;;;;4986962;28;20088;-88
2023/02/13 12:43:17;;;;;;;31.40;19.87;;;10.50;99.90;;;;;;4992857;28;20038;-88
2023/02/13 12:45:59;;;;;;;29.95;21.13;;;11.00;99.90;;;;;;4981548;28;20034;-89
2023/02/13 12:48:59;;;;;;;33.80;20.38;;;10.60;99.90;;;;;;4996486;28;20478;-88
2023/02/13 12:51:49;;;;;;;31.05;19.90;;;10.70;99.90;;;;;;5000172;28;20045;-88
2023/02/13 12:54:34;;;;;;;31.98;19.85;;;10.60;99.90;;;;;;4992639;28;20029;-88
2023/02/13 12:57:23;;;;;;;37.25;20.83;;;10.70;99.90;;;;;;4994553;28;20502;-88
2023/02/13 12:59:53;;;;;;;26.35;18.98;;;10.80;99.90;;;;;;4991256;28;20018;-88
2023/02/13 13:02:45;;;;;;;27.60;19.27;;;10.80;99.90;;;;;;4979292;28;20105;-88
2023/02/13 13:05:22;;;;;;;31.60;19.58;;;10.90;99.90;;;;;;4999009;28;20026;-88
2023/02/13 13:08:11;;;;;;;28.63;20.30;;;10.90;99.90;;;;;;4999520;28;20050;-88
2023/02/13 13:10:37;;;;;;;31.17;20.33;;;11.00;99.90;;;;;;5001434;28;20053;-88
2023/02/13 13:13:11;;;;;;;30.30;19.92;;;11.00;99.90;;;;;;5005776;28;20466;-89
2023/02/13 13:16:06;;;;;;;33.20;20.38;;;11.90;99.90;;;;;;4988439;28;20030;-87
2023/02/13 13:19:08;;;;;;;27.77;19.75;;;11.20;99.90;;;;;;4955280;28;20027;-88
2023/02/13 13:21:51;;;;;;;34.67;19.25;;;11.20;99.90;;;;;;4981315;28;20034;-88
2023/02/13 13:24:25;;;;;;;32.50;19.60;;;11.20;99.90;;;;;;4991608;28;20027;-88
2023/02/13 13:26:56;;;;;;;27.63;20.02;;;11.30;99.90;;;;;;4986949;28;20057;-89
2023/02/13 13:29:31;;;;;;;28.73;18.33;;;11.30;99.90;;;;;;4998542;28;20060;-87
2023/02/13 13:32:07;;;;;;;25.65;18.02;;;11.20;99.90;;;;;;4986742;28;20475;-87
2023/02/13 13:34:35;;;;;;;31.08;19.50;;;11.20;99.90;;;;;;4992228;28;20078;-88
2023/02/13 13:37:18;;;;;;;31.92;19.65;;;11.30;99.90;;;;;;4992880;28;20030;-88
2023/02/13 13:40:02;;;;;;;28.30;19.90;;;11.30;99.90;;;;;;4992023;28;20467;-87
2023/02/13 13:42:39;;;;;;;26.38;19.65;;;11.40;99.90;;;;;;4986575;28;20049;-87
2023/02/13 13:45:42;;;;;;;29.80;19.73;;;11.50;99.90;;;;;;4997642;28;20118;-87
2023/02/13 13:48:38;;;;;;;30.58;19.90;;;11.60;99.90;;;;;;4984310;28;20462;-88
2023/02/13 13:51:06;;;;;;;31.33;18.60;;;11.60;99.90;;;;;;4997022;28;20030;-87